createdAt,value
2023-03-12T00:00:22.336Z,5.63
2023-03-12T00:02:50.160Z,5.40
2023-03-12T00:05:19.599Z,5.10
2023-03-12T00:07:47.422Z,5.60
2023-03-12T00:10:15.545Z,4.83
2023-03-12T00:12:43.357Z,5.30
2023-03-12T00:15:12.194Z,5.67
2023-03-12T00:17:39.869Z,5.20
2023-03-12T00:20:08.125Z,5.50
2023-03-12T00:22:37.395Z,5.73
2023-03-12T00:25:06.225Z,5.37
2023-03-12T00:27:34.232Z,5.13
2023-03-12T00:30:02.083Z,5.60
2023-03-12T00:32:29.811Z,4.87
2023-03-12T00:34:57.642Z,4.90
2023-03-12T00:37:25.323Z,5.03
2023-03-12T00:39:54.473Z,5.43
2023-03-12T00:42:22.150Z,5.07
2023-03-12T00:44:49.821Z,5.93
2023-03-12T00:47:17.561Z,5.20
2023-03-12T00:49:45.387Z,5.30
2023-03-12T00:52:13.273Z,5.33
2023-03-12T00:54:41.082Z,5.30
2023-03-12T00:57:10.221Z,5.30
2023-03-12T00:59:40.467Z,5.30
2023-03-12T01:02:08.664Z,6.00
2023-03-12T01:04:36.468Z,5.43
2023-03-12T01:07:04.303Z,5.63
2023-03-12T01:09:32.063Z,5.57
2023-03-12T01:11:59.787Z,5.70
2023-03-12T01:14:28.886Z,4.97
2023-03-12T01:16:56.625Z,5.20
2023-03-12T01:19:24.352Z,5.57
2023-03-12T01:21:52.050Z,5.10
2023-03-12T01:24:19.888Z,5.67
2023-03-12T01:26:47.709Z,5.37
2023-03-12T01:29:15.377Z,5.40
2023-03-12T01:31:44.611Z,5.70
2023-03-12T01:34:13.289Z,5.13
2023-03-12T01:36:41.475Z,5.53
2023-03-12T01:39:09.224Z,5.63
2023-03-12T01:41:37.134Z,5.10
2023-03-12T01:44:07.653Z,5.80
2023-03-12T01:46:36.744Z,5.60
2023-03-12T01:49:09.928Z,5.23
2023-03-12T01:51:41.236Z,5.40
2023-03-12T01:54:13.323Z,5.27
2023-03-12T01:56:42.498Z,6.00
2023-03-12T01:59:14.870Z,5.60
2023-03-12T02:01:43.841Z,6.10
2023-03-12T02:04:14.086Z,5.80
2023-03-12T02:06:50.303Z,6.43
2023-03-12T02:09:20.529Z,6.53
2023-03-12T02:11:48.849Z,6.80
2023-03-12T02:14:17.225Z,5.83
2023-03-12T02:16:45.518Z,6.13
2023-03-12T02:19:24.130Z,6.57
2023-03-12T02:21:52.123Z,5.83
2023-03-12T02:24:29.023Z,6.10
2023-03-12T02:26:58.616Z,6.60
2023-03-12T02:29:29.200Z,6.20
2023-03-12T02:31:59.214Z,6.20
2023-03-12T02:34:27.045Z,6.13
2023-03-12T02:36:54.941Z,5.80
2023-03-12T02:39:22.987Z,5.93
2023-03-12T02:41:55.162Z,5.70
2023-03-12T02:44:26.997Z,5.93
2023-03-12T02:46:57.399Z,6.57
2023-03-12T02:49:27.749Z,6.47
2023-03-12T02:51:57.615Z,6.63
2023-03-12T02:54:26.287Z,5.90
2023-03-12T02:56:54.328Z,6.30
2023-03-12T02:59:26.675Z,6.43
2023-03-12T03:01:55.461Z,7.07
2023-03-12T03:04:23.889Z,6.80
2023-03-12T03:06:51.872Z,6.50
2023-03-12T03:09:22.177Z,6.40
2023-03-12T03:11:50.254Z,6.73
2023-03-12T03:14:18.191Z,6.27
2023-03-12T03:16:47.315Z,6.63
2023-03-12T03:19:15.095Z,6.50
2023-03-12T03:21:43.854Z,6.23
2023-03-12T03:24:12.037Z,6.20
2023-03-12T03:26:39.871Z,6.87
2023-03-12T03:29:07.669Z,7.17
2023-03-12T03:31:35.677Z,6.93
2023-03-12T03:34:04.877Z,6.70
2023-03-12T03:36:32.565Z,7.00
2023-03-12T03:39:00.356Z,6.97
2023-03-12T03:41:28.176Z,6.87
2023-03-12T03:43:59.318Z,7.30
2023-03-12T03:46:27.911Z,6.87
2023-03-12T03:48:55.758Z,6.47
2023-03-12T03:51:24.980Z,7.40
2023-03-12T03:53:52.674Z,7.33
2023-03-12T03:56:20.814Z,7.23
2023-03-12T03:58:48.640Z,7.10
2023-03-12T04:01:16.749Z,8.13
2023-03-12T04:03:44.707Z,7.83
2023-03-12T04:06:12.938Z,8.43
2023-03-12T04:08:42.261Z,8.70
2023-03-12T04:11:11.010Z,8.30
2023-03-12T04:13:39.179Z,9.07
2023-03-12T04:16:08.168Z,8.80
2023-03-12T04:18:37.043Z,8.70
2023-03-12T04:21:05.968Z,8.93
2023-03-12T04:23:33.822Z,9.10
2023-03-12T04:26:03.140Z,9.33
2023-03-12T04:28:30.960Z,8.83
2023-03-12T04:31:01.076Z,9.63
2023-03-12T04:33:29.678Z,9.60
2023-03-12T04:35:58.091Z,9.93
2023-03-12T04:38:27.327Z,8.77
2023-03-12T04:41:04.056Z,10.33
2023-03-12T04:43:33.342Z,9.53
2023-03-12T04:46:01.282Z,9.93
2023-03-12T04:48:29.249Z,11.27
2023-03-12T04:50:57.266Z,10.27
2023-03-12T04:53:26.286Z,10.70
2023-03-12T04:55:54.106Z,11.07
2023-03-12T04:58:23.817Z,10.93
2023-03-12T05:00:51.715Z,10.40
2023-03-12T05:03:19.792Z,11.10
2023-03-12T05:05:47.578Z,11.53
2023-03-12T05:08:15.275Z,11.33
2023-03-12T05:10:45.409Z,10.83
2023-03-12T05:13:16.796Z,11.53
2023-03-12T05:15:47.505Z,11.37
2023-03-12T05:18:15.309Z,12.37
2023-03-12T05:20:43.136Z,11.03
2023-03-12T05:23:10.856Z,11.90
2023-03-12T05:25:40.788Z,13.10
2023-03-12T05:28:08.646Z,12.10
2023-03-12T05:30:36.461Z,11.43
2023-03-12T05:33:05.580Z,11.07
2023-03-12T05:35:33.460Z,12.30
2023-03-12T05:38:01.470Z,10.30
2023-03-12T05:40:29.521Z,10.60
2023-03-12T05:42:57.462Z,10.87
2023-03-12T05:45:25.229Z,11.00
2023-03-12T05:47:52.959Z,9.57
2023-03-12T05:50:22.112Z,10.97
2023-03-12T05:52:49.877Z,9.13
2023-03-12T05:55:17.792Z,10.00
2023-03-12T05:57:45.685Z,9.37
2023-03-12T06:00:15.327Z,9.73
2023-03-12T06:02:44.462Z,9.37
2023-03-12T06:05:12.348Z,9.37
2023-03-12T06:07:41.600Z,8.80
2023-03-12T06:10:10.810Z,9.13
2023-03-12T06:12:38.565Z,8.47
2023-03-12T06:15:07.079Z,7.80
2023-03-12T06:17:35.119Z,7.80
2023-03-12T06:20:02.937Z,9.40
2023-03-12T06:22:30.645Z,7.97
2023-03-12T06:24:59.871Z,7.57
2023-03-12T06:27:27.673Z,7.40
2023-03-12T06:29:55.398Z,7.10
2023-03-12T06:32:23.224Z,7.53
2023-03-12T06:34:51.024Z,8.70
2023-03-12T06:37:18.837Z,9.70
2023-03-12T06:39:46.598Z,10.60
2023-03-12T06:42:17.719Z,9.53
2023-03-12T06:44:45.475Z,8.47
2023-03-12T06:47:13.798Z,8.27
2023-03-12T06:49:42.610Z,7.20
2023-03-12T06:52:10.358Z,5.90
2023-03-12T06:54:38.170Z,6.50
2023-03-12T06:57:05.968Z,5.70
2023-03-12T06:59:35.251Z,5.57
2023-03-12T07:02:03.183Z,5.40
2023-03-12T07:04:31.004Z,5.60
2023-03-12T07:06:59.456Z,5.50
2023-03-12T07:09:27.404Z,8.10
2023-03-12T07:11:55.143Z,5.33
2023-03-12T07:14:22.834Z,5.20
2023-03-12T07:16:51.946Z,5.17
2023-03-12T07:19:19.845Z,5.10
2023-03-12T07:21:47.725Z,5.40
2023-03-12T07:24:15.535Z,4.80
2023-03-12T07:26:43.720Z,5.83
2023-03-12T07:29:11.535Z,4.90
2023-03-12T07:31:39.453Z,4.33
2023-03-12T07:34:08.717Z,4.20
2023-03-12T07:36:36.624Z,3.83
2023-03-12T07:39:05.360Z,3.57
2023-03-12T07:41:33.172Z,3.60
2023-03-12T07:44:01.072Z,4.10
2023-03-12T07:46:28.849Z,3.50
2023-03-12T07:48:56.761Z,2.97
2023-03-12T07:51:25.985Z,3.87
2023-03-12T07:53:53.943Z,3.57
2023-03-12T07:56:22.021Z,3.67
2023-03-12T07:58:49.962Z,2.87
2023-03-12T08:01:17.851Z,3.73
2023-03-12T08:03:45.686Z,2.90
2023-03-12T08:06:13.562Z,3.37
2023-03-12T08:08:42.854Z,2.83
2023-03-12T08:11:11.050Z,2.70
2023-03-12T08:13:38.858Z,2.67
2023-03-12T08:16:09.328Z,3.00
2023-03-12T08:18:37.404Z,2.67
2023-03-12T08:21:05.569Z,2.67
2023-03-12T08:23:33.326Z,2.90
2023-03-12T08:26:02.614Z,2.53
2023-03-12T08:28:30.890Z,2.30
2023-03-12T08:31:00.466Z,3.00
2023-03-12T08:33:28.341Z,2.80
2023-03-12T08:35:56.177Z,2.93
2023-03-12T08:38:24.302Z,2.90
2023-03-12T08:40:56.975Z,3.20
2023-03-12T08:43:29.021Z,3.40
2023-03-12T08:45:57.551Z,2.97
2023-03-12T08:48:25.496Z,3.10
2023-03-12T08:50:56.216Z,3.67
2023-03-12T08:53:24.043Z,3.30
2023-03-12T08:55:53.659Z,2.80
2023-03-12T08:58:21.427Z,3.23
2023-03-12T09:00:50.652Z,3.33
2023-03-12T09:03:18.748Z,3.27
2023-03-12T09:05:46.703Z,4.00
2023-03-12T09:08:14.572Z,3.70
2023-03-12T09:10:49.426Z,3.63
2023-03-12T09:13:17.498Z,4.17
2023-03-12T09:15:45.218Z,4.00
2023-03-12T09:18:14.497Z,4.07
2023-03-12T09:20:43.492Z,3.90
2023-03-12T09:23:11.194Z,3.83
2023-03-12T09:25:38.944Z,3.87
2023-03-12T09:28:06.770Z,3.70
2023-03-12T09:30:34.629Z,4.10
2023-03-12T09:33:02.498Z,6.70
2023-03-12T09:35:32.273Z,3.80
2023-03-12T09:38:00.147Z,17.10
2023-03-12T09:40:31.728Z,3.67
2023-03-12T09:43:02.870Z,9.00
2023-03-12T09:45:34.414Z,6.63
2023-03-12T09:48:04.316Z,8.80
2023-03-12T09:50:35.570Z,8.63
2023-03-12T09:53:05.977Z,21.97
2023-03-12T09:55:37.999Z,7.60
2023-03-12T09:58:06.182Z,11.33
2023-03-12T10:00:37.046Z,13.07
2023-03-12T10:03:29.312Z,5.77
2023-03-12T10:06:11.975Z,23.27
2023-03-12T10:08:53.027Z,4.30
2023-03-12T10:11:32.260Z,9.03
2023-03-12T10:14:24.149Z,3.87
2023-03-12T10:17:05.436Z,7.50
2023-03-12T10:19:45.301Z,5.73
2023-03-12T10:22:28.505Z,6.63
2023-03-12T10:25:06.792Z,3.87
2023-03-12T10:27:37.037Z,4.00
2023-03-12T10:30:17.759Z,3.10
2023-03-12T10:32:49.740Z,3.03
2023-03-12T10:35:21.768Z,3.63
2023-03-12T10:37:54.704Z,4.03
2023-03-12T10:40:24.313Z,3.20
2023-03-12T10:42:52.810Z,3.70
2023-03-12T10:45:32.975Z,3.87
2023-03-12T10:48:06.348Z,3.83
2023-03-12T10:50:35.542Z,3.70
2023-03-12T10:53:20.319Z,4.00
2023-03-12T10:56:03.840Z,3.57
2023-03-12T10:58:37.220Z,3.13
2023-03-12T11:01:07.153Z,3.80
2023-03-12T11:03:35.204Z,4.43
2023-03-12T11:06:04.477Z,3.77
2023-03-12T11:08:35.462Z,3.77
2023-03-12T11:11:04.850Z,3.50
2023-03-12T11:13:34.258Z,2.90
2023-03-12T11:16:03.839Z,3.57
2023-03-12T11:18:34.564Z,3.03
2023-03-12T11:21:17.518Z,2.97
2023-03-12T11:24:04.753Z,3.00
2023-03-12T11:26:36.035Z,2.80
2023-03-12T11:29:08.194Z,2.80
2023-03-12T11:31:41.005Z,3.30
2023-03-12T11:34:15.009Z,2.90
2023-03-12T11:36:54.441Z,3.17
2023-03-12T11:39:31.669Z,2.60
2023-03-12T11:42:17.266Z,3.40
2023-03-12T11:44:57.140Z,2.67
2023-03-12T11:47:39.032Z,2.90
2023-03-12T11:50:29.657Z,2.83
2023-03-12T11:53:24.245Z,2.70
2023-03-12T11:56:04.272Z,2.73
2023-03-12T11:58:46.049Z,2.60
2023-03-12T12:01:21.768Z,3.10
2023-03-12T12:04:35.044Z,2.73
2023-03-12T12:07:13.895Z,2.90
2023-03-12T12:09:48.736Z,2.63
2023-03-12T12:12:28.515Z,2.80
2023-03-12T12:15:11.802Z,3.03
2023-03-12T12:17:53.758Z,3.10
2023-03-12T12:20:34.085Z,8.90
2023-03-12T12:23:11.470Z,3.30
2023-03-12T12:26:05.525Z,7.00
2023-03-12T12:28:57.326Z,6.77
2023-03-12T12:31:37.642Z,4.33
2023-03-12T12:34:44.464Z,4.07
2023-03-12T12:37:39.426Z,21.00
2023-03-12T12:40:18.638Z,3.90
2023-03-12T12:42:56.305Z,3.97
2023-03-12T12:45:29.028Z,5.90
2023-03-12T12:48:04.031Z,2.70
2023-03-12T12:50:36.635Z,5.47
2023-03-12T12:53:17.074Z,4.40
2023-03-12T12:55:50.886Z,4.43
2023-03-12T12:58:23.289Z,3.10
2023-03-12T13:00:54.414Z,3.00
2023-03-12T13:03:24.651Z,2.77
2023-03-12T13:05:58.419Z,3.43
2023-03-12T13:09:01.681Z,3.97
2023-03-12T13:11:41.355Z,3.60
2023-03-12T13:14:21.560Z,3.57
2023-03-12T13:16:51.219Z,3.33
2023-03-12T13:19:27.083Z,3.00
2023-03-12T13:22:11.039Z,3.37
2023-03-12T13:24:45.648Z,3.13
2023-03-12T13:27:20.780Z,3.03
2023-03-12T13:29:55.069Z,3.10
2023-03-12T13:33:07.251Z,3.30
2023-03-12T13:35:38.651Z,2.93
2023-03-12T13:38:08.829Z,2.83
2023-03-12T13:41:05.114Z,3.20
2023-03-12T13:43:43.127Z,2.93
2023-03-12T13:46:29.980Z,3.10
2023-03-12T13:49:04.698Z,3.27
2023-03-12T13:51:32.684Z,3.37
2023-03-12T13:54:02.429Z,3.77
2023-03-12T13:56:32.756Z,3.37
2023-03-12T13:59:02.456Z,10.77
2023-03-12T14:01:32.970Z,10.27
2023-03-12T14:04:06.902Z,4.50
2023-03-12T14:06:50.132Z,3.97
2023-03-12T14:09:26.822Z,3.20
2023-03-12T14:12:05.861Z,3.50
2023-03-12T14:15:08.664Z,4.20
2023-03-12T14:17:42.587Z,4.33
2023-03-12T14:20:17.894Z,3.70
2023-03-12T14:22:51.655Z,4.33
2023-03-12T14:25:30.116Z,4.27
2023-03-12T14:27:58.164Z,3.90
2023-03-12T14:30:32.839Z,4.70
2023-03-12T14:33:03.747Z,5.27
2023-03-12T14:35:39.473Z,4.63
2023-03-12T14:38:13.203Z,4.87
2023-03-12T14:40:45.950Z,5.60
2023-03-12T14:43:26.119Z,4.60
2023-03-12T14:45:57.205Z,8.57
2023-03-12T14:48:28.465Z,5.23
2023-03-12T14:50:58.915Z,4.80
2023-03-12T14:53:29.352Z,7.67
2023-03-12T14:56:05.411Z,4.70
2023-03-12T14:58:34.201Z,4.50
2023-03-12T15:01:04.943Z,4.73
2023-03-12T15:03:41.696Z,3.93
2023-03-12T15:06:18.998Z,4.33
2023-03-12T15:08:47.225Z,4.27
2023-03-12T15:11:15.068Z,4.20
2023-03-12T15:13:42.871Z,3.87
2023-03-12T15:16:10.912Z,4.13
2023-03-12T15:18:39.212Z,3.87
2023-03-12T15:21:07.652Z,3.53
2023-03-12T15:23:38.807Z,4.20
2023-03-12T15:26:11.650Z,4.20
2023-03-12T15:28:40.290Z,4.17
2023-03-12T15:31:11.834Z,4.17
2023-03-12T15:33:41.045Z,3.00
2023-03-12T15:36:25.416Z,4.33
2023-03-12T15:38:57.851Z,4.17
2023-03-12T15:41:29.134Z,3.40
2023-03-12T15:43:58.890Z,3.80
2023-03-12T15:46:28.241Z,3.70
2023-03-12T15:48:58.638Z,3.20
2023-03-12T15:51:33.660Z,3.57
2023-03-12T15:54:06.892Z,3.60
2023-03-12T15:56:36.711Z,3.57
2023-03-12T15:59:20.024Z,4.40
2023-03-12T16:01:49.593Z,3.73
2023-03-12T16:04:17.712Z,4.57
2023-03-12T16:06:48.839Z,4.20
2023-03-12T16:09:21.806Z,5.77
2023-03-12T16:11:50.242Z,5.47
2023-03-12T16:14:21.310Z,6.43
2023-03-12T16:16:49.371Z,5.70
2023-03-12T16:19:19.106Z,5.70
2023-03-12T16:21:47.416Z,12.67
2023-03-12T16:24:16.519Z,10.17
2023-03-12T16:26:51.558Z,16.37
2023-03-12T16:29:20.508Z,10.83
2023-03-12T16:31:52.644Z,13.27
2023-03-12T16:34:20.433Z,7.43
2023-03-12T16:36:48.271Z,9.87
2023-03-12T16:39:17.754Z,10.83
2023-03-12T16:41:48.472Z,27.47
2023-03-12T16:44:20.713Z,11.83
2023-03-12T16:46:48.574Z,20.03
2023-03-12T16:49:20.785Z,20.83
2023-03-12T16:51:48.798Z,23.87
2023-03-12T16:54:16.643Z,25.60
2023-03-12T16:56:49.162Z,18.10
2023-03-12T16:59:25.351Z,20.53
2023-03-12T17:01:53.332Z,42.50
2023-03-12T17:04:21.105Z,37.17
2023-03-12T17:06:48.891Z,26.53
2023-03-12T17:09:16.637Z,23.30
2023-03-12T17:11:44.453Z,49.13
2023-03-12T17:14:19.179Z,19.93
2023-03-12T17:16:46.977Z,17.80
2023-03-12T17:19:14.967Z,27.43
2023-03-12T17:21:44.117Z,40.70
2023-03-12T17:24:13.938Z,11.33
2023-03-12T17:26:42.128Z,34.77
2023-03-12T17:29:09.882Z,22.07
2023-03-12T17:31:39.104Z,16.77
2023-03-12T17:34:07.270Z,22.40
2023-03-12T17:36:37.785Z,15.53
2023-03-12T17:39:05.955Z,19.67
2023-03-12T17:41:34.002Z,18.70
2023-03-12T17:44:03.880Z,15.43
2023-03-12T17:46:32.148Z,16.20
2023-03-12T17:49:01.435Z,17.63
2023-03-12T17:51:29.223Z,16.10
2023-03-12T17:53:56.943Z,17.93
2023-03-12T17:56:24.748Z,17.90
2023-03-12T17:58:52.757Z,20.73
2023-03-12T18:01:20.677Z,20.70
2023-03-12T18:03:51.206Z,18.43
2023-03-12T18:06:20.464Z,21.73
2023-03-12T18:08:48.382Z,21.40
2023-03-12T18:11:16.881Z,21.17
2023-03-12T18:13:44.951Z,21.30
2023-03-12T18:16:13.701Z,21.43
2023-03-12T18:18:42.250Z,22.17
2023-03-12T18:21:10.102Z,24.57
2023-03-12T18:23:39.199Z,26.07
2023-03-12T18:26:06.976Z,23.10
2023-03-12T18:28:34.748Z,22.40
2023-03-12T18:31:02.517Z,23.73
2023-03-12T18:33:30.842Z,24.20
2023-03-12T18:35:58.765Z,24.27
2023-03-12T18:38:26.648Z,27.80
2023-03-12T18:41:03.394Z,25.83
2023-03-12T18:43:31.356Z,27.27
2023-03-12T18:45:59.172Z,27.33
2023-03-12T18:48:27.052Z,36.23
2023-03-12T18:50:54.976Z,31.13
2023-03-12T18:53:22.984Z,32.53
2023-03-12T18:55:56.802Z,29.07
2023-03-12T18:58:25.828Z,31.63
2023-03-12T19:00:54.074Z,33.00
2023-03-12T19:03:22.732Z,34.60
2023-03-12T19:06:00.971Z,34.50
2023-03-12T19:08:28.796Z,32.20
2023-03-12T19:10:58.039Z,33.30
2023-03-12T19:13:26.074Z,34.77
2023-03-12T19:15:59.909Z,35.00
2023-03-12T19:18:28.283Z,33.77
2023-03-12T19:20:56.236Z,36.33
2023-03-12T19:23:24.604Z,38.27
2023-03-12T19:25:52.329Z,37.03
2023-03-12T19:28:21.600Z,39.47
2023-03-12T19:30:49.523Z,37.10
2023-03-12T19:33:17.430Z,39.53
2023-03-12T19:35:45.665Z,38.87
2023-03-12T19:38:13.373Z,39.27
2023-03-12T19:40:41.056Z,41.53
2023-03-12T19:43:08.927Z,39.03
2023-03-12T19:45:38.484Z,44.80
2023-03-12T19:48:06.732Z,41.07
2023-03-12T19:50:34.670Z,41.47
2023-03-12T19:53:02.774Z,40.17
2023-03-12T19:55:30.542Z,40.93
2023-03-12T19:57:58.413Z,39.57
2023-03-12T20:00:26.305Z,41.40
2023-03-12T20:02:55.737Z,39.77
2023-03-12T20:05:23.545Z,40.40
2023-03-12T20:07:52.249Z,38.50
2023-03-12T20:10:20.521Z,39.60
2023-03-12T20:12:48.421Z,38.10
2023-03-12T20:15:16.380Z,37.07
2023-03-12T20:17:44.278Z,37.40
2023-03-12T20:20:14.410Z,36.97
2023-03-12T20:22:42.113Z,32.70
2023-03-12T20:25:11.137Z,34.80
2023-03-12T20:27:39.240Z,32.53
2023-03-12T20:30:08.315Z,30.57
2023-03-12T20:32:36.299Z,31.70
2023-03-12T20:35:04.319Z,32.13
2023-03-12T20:37:33.938Z,29.77
2023-03-12T20:40:01.764Z,30.20
2023-03-12T20:42:29.526Z,29.30
2023-03-12T20:44:57.327Z,33.17
2023-03-12T20:47:25.149Z,30.60
2023-03-12T20:49:53.081Z,29.77
2023-03-12T20:52:20.793Z,30.40
2023-03-12T20:54:49.958Z,28.97
2023-03-12T20:57:17.785Z,31.97
2023-03-12T20:59:45.540Z,31.23
2023-03-12T21:02:14.794Z,28.03
2023-03-12T21:04:43.447Z,27.00
2023-03-12T21:07:11.278Z,33.53
2023-03-12T21:09:39.001Z,26.77
2023-03-12T21:12:08.112Z,27.63
2023-03-12T21:14:35.808Z,25.13
2023-03-12T21:17:03.830Z,26.40
2023-03-12T21:19:32.012Z,25.00
2023-03-12T21:21:59.736Z,24.50
2023-03-12T21:24:27.517Z,24.07
2023-03-12T21:26:55.226Z,23.43
2023-03-12T21:29:24.344Z,22.43
2023-03-12T21:31:53.782Z,22.03
2023-03-12T21:34:21.679Z,24.03
2023-03-12T21:36:49.495Z,19.93
2023-03-12T21:39:18.188Z,22.07
2023-03-12T21:41:46.022Z,21.33
2023-03-12T21:44:16.398Z,21.20
2023-03-12T21:46:45.821Z,19.70
2023-03-12T21:49:17.947Z,22.53
2023-03-12T21:51:46.226Z,21.73
2023-03-12T21:54:14.178Z,20.13
2023-03-12T21:56:41.959Z,21.33
2023-03-12T21:59:10.641Z,21.37
2023-03-12T22:01:38.533Z,20.70
2023-03-12T22:04:07.819Z,22.23
2023-03-12T22:06:35.628Z,21.40
2023-03-12T22:09:03.677Z,22.07
2023-03-12T22:11:31.448Z,22.63
2023-03-12T22:13:59.317Z,22.33
2023-03-12T22:16:27.300Z,21.50
2023-03-12T22:18:55.016Z,23.63
2023-03-12T22:21:25.212Z,20.73
2023-03-12T22:23:54.538Z,22.60
2023-03-12T22:26:23.617Z,20.90
2023-03-12T22:28:52.309Z,22.07
2023-03-12T22:31:21.480Z,21.07
2023-03-12T22:33:49.883Z,21.10
2023-03-12T22:36:19.021Z,20.83
2023-03-12T22:38:48.699Z,19.83
2023-03-12T22:41:18.394Z,17.33
2023-03-12T22:43:47.215Z,19.67
2023-03-12T22:46:16.982Z,18.67
2023-03-12T22:48:45.447Z,17.70
2023-03-12T22:51:13.674Z,15.67
2023-03-12T22:53:41.422Z,15.40
2023-03-12T22:56:12.627Z,16.03
2023-03-12T22:58:41.054Z,14.90
2023-03-12T23:01:11.250Z,15.40
2023-03-12T23:03:40.999Z,15.20
2023-03-12T23:06:10.787Z,14.77
2023-03-12T23:08:39.197Z,14.07
2023-03-12T23:11:08.482Z,14.40
2023-03-12T23:13:40.145Z,15.27
2023-03-12T23:16:10.524Z,12.83
2023-03-12T23:18:39.080Z,12.23
2023-03-12T23:21:09.479Z,12.07
2023-03-12T23:23:39.465Z,13.07
2023-03-12T23:26:07.231Z,11.23
2023-03-12T23:28:35.137Z,12.13
2023-03-12T23:31:08.233Z,11.53
2023-03-12T23:33:37.238Z,12.57
2023-03-12T23:36:07.127Z,11.33
2023-03-12T23:38:37.514Z,10.57
2023-03-12T23:41:06.742Z,12.33
2023-03-12T23:43:34.733Z,10.90
2023-03-12T23:46:05.586Z,10.40
2023-03-12T23:48:36.690Z,11.20
2023-03-12T23:51:06.654Z,10.43
2023-03-12T23:53:35.023Z,9.60
2023-03-12T23:56:04.528Z,8.47
2023-03-12T23:58:32.342Z,9.73
